sensor_id;sensor_type;location;lat;lon;timestamp;P1;durP1;ratioP1;P2;durP2;ratioP2
77350;SDS011;66420;50.246;14.320;2023-06-26T00:00:20;10.68;;;5.18;;
77350;SDS011;66420;50.246;14.320;2023-06-26T00:03:05;7.78;;;5.45;;
77350;SDS011;66420;50.246;14.320;2023-06-26T00:05:50;8.32;;;5.47;;
77350;SDS011;66420;50.246;14.320;2023-06-26T00:08:35;8.52;;;5.35;;
77350;SDS011;66420;50.246;14.320;2023-06-26T00:11:20;6.60;;;4.20;;
77350;SDS011;66420;50.246;14.320;2023-06-26T00:14:06;7.97;;;5.32;;
77350;SDS011;66420;50.246;14.320;2023-06-26T00:16:51;6.75;;;4.95;;
77350;SDS011;66420;50.246;14.320;2023-06-26T00:19:36;7.78;;;5.00;;
77350;SDS011;66420;50.246;14.320;2023-06-26T00:22:21;8.57;;;5.30;;
77350;SDS011;66420;50.246;14.320;2023-06-26T00:25:06;7.82;;;5.10;;
77350;SDS011;66420;50.246;14.320;2023-06-26T00:27:51;7.55;;;4.63;;
77350;SDS011;66420;50.246;14.320;2023-06-26T00:30:36;9.95;;;5.38;;
77350;SDS011;66420;50.246;14.320;2023-06-26T00:33:20;7.43;;;5.22;;
77350;SDS011;66420;50.246;14.320;2023-06-26T00:36:05;8.10;;;5.07;;
77350;SDS011;66420;50.246;14.320;2023-06-26T00:38:50;11.25;;;5.88;;
77350;SDS011;66420;50.246;14.320;2023-06-26T00:41:35;9.27;;;5.05;;
77350;SDS011;66420;50.246;14.320;2023-06-26T00:44:21;10.05;;;5.35;;
77350;SDS011;66420;50.246;14.320;2023-06-26T00:47:06;9.27;;;5.22;;
77350;SDS011;66420;50.246;14.320;2023-06-26T00:49:51;6.82;;;4.88;;
77350;SDS011;66420;50.246;14.320;2023-06-26T00:52:37;6.90;;;5.28;;
77350;SDS011;66420;50.246;14.320;2023-06-26T00:55:22;6.32;;;4.30;;
77350;SDS011;66420;50.246;14.320;2023-06-26T00:58:07;7.05;;;5.10;;
77350;SDS011;66420;50.246;14.320;2023-06-26T01:00:52;6.82;;;4.93;;
77350;SDS011;66420;50.246;14.320;2023-06-26T01:03:37;7.88;;;4.72;;
77350;SDS011;66420;50.246;14.320;2023-06-26T01:06:24;8.43;;;4.85;;
77350;SDS011;66420;50.246;14.320;2023-06-26T01:09:12;7.03;;;4.53;;
77350;SDS011;66420;50.246;14.320;2023-06-26T01:11:57;7.97;;;4.63;;
77350;SDS011;66420;50.246;14.320;2023-06-26T01:14:42;6.20;;;4.32;;
77350;SDS011;66420;50.246;14.320;2023-06-26T01:17:27;8.32;;;5.30;;
77350;SDS011;66420;50.246;14.320;2023-06-26T01:20:16;8.57;;;5.40;;
77350;SDS011;66420;50.246;14.320;2023-06-26T01:23:07;13.93;;;5.88;;
77350;SDS011;66420;50.246;14.320;2023-06-26T01:28:52;7.65;;;4.78;;
77350;SDS011;66420;50.246;14.320;2023-06-26T01:31:38;9.15;;;5.40;;
77350;SDS011;66420;50.246;14.320;2023-06-26T01:34:24;7.57;;;4.90;;
77350;SDS011;66420;50.246;14.320;2023-06-26T01:37:09;7.43;;;5.10;;
77350;SDS011;66420;50.246;14.320;2023-06-26T01:39:53;8.45;;;5.50;;
77350;SDS011;66420;50.246;14.320;2023-06-26T01:42:38;8.20;;;5.20;;
77350;SDS011;66420;50.246;14.320;2023-06-26T01:45:27;10.55;;;5.95;;
77350;SDS011;66420;50.246;14.320;2023-06-26T01:48:14;7.97;;;5.45;;
77350;SDS011;66420;50.246;14.320;2023-06-26T01:51:01;8.13;;;5.22;;
77350;SDS011;66420;50.246;14.320;2023-06-26T01:53:47;7.30;;;4.88;;
77350;SDS011;66420;50.246;14.320;2023-06-26T01:56:37;7.30;;;5.55;;
77350;SDS011;66420;50.246;14.320;2023-06-26T01:59:23;9.63;;;5.82;;
77350;SDS011;66420;50.246;14.320;2023-06-26T02:02:11;8.60;;;5.95;;
77350;SDS011;66420;50.246;14.320;2023-06-26T02:04:55;7.45;;;5.32;;
77350;SDS011;66420;50.246;14.320;2023-06-26T02:07:40;8.30;;;5.00;;
77350;SDS011;66420;50.246;14.320;2023-06-26T02:10:26;7.85;;;4.30;;
77350;SDS011;66420;50.246;14.320;2023-06-26T02:13:11;13.10;;;5.40;;
77350;SDS011;66420;50.246;14.320;2023-06-26T02:15:55;6.75;;;4.70;;
77350;SDS011;66420;50.246;14.320;2023-06-26T02:18:41;6.65;;;5.07;;
77350;SDS011;66420;50.246;14.320;2023-06-26T02:21:26;7.78;;;4.82;;
77350;SDS011;66420;50.246;14.320;2023-06-26T02:24:11;9.55;;;5.57;;
77350;SDS011;66420;50.246;14.320;2023-06-26T02:26:56;7.05;;;4.70;;
77350;SDS011;66420;50.246;14.320;2023-06-26T02:29:41;9.23;;;5.45;;
77350;SDS011;66420;50.246;14.320;2023-06-26T02:32:26;7.88;;;5.10;;
77350;SDS011;66420;50.246;14.320;2023-06-26T02:35:10;8.85;;;5.85;;
77350;SDS011;66420;50.246;14.320;2023-06-26T02:37:55;8.68;;;6.03;;
77350;SDS011;66420;50.246;14.320;2023-06-26T02:40:40;8.77;;;5.10;;
77350;SDS011;66420;50.246;14.320;2023-06-26T02:43:24;7.95;;;5.85;;
77350;SDS011;66420;50.246;14.320;2023-06-26T02:46:09;10.10;;;6.07;;
77350;SDS011;66420;50.246;14.320;2023-06-26T02:48:54;10.70;;;5.95;;
77350;SDS011;66420;50.246;14.320;2023-06-26T02:51:39;8.05;;;5.18;;
77350;SDS011;66420;50.246;14.320;2023-06-26T02:54:24;12.05;;;6.25;;
77350;SDS011;66420;50.246;14.320;2023-06-26T02:57:08;8.50;;;5.30;;
77350;SDS011;66420;50.246;14.320;2023-06-26T02:59:53;8.35;;;5.53;;
77350;SDS011;66420;50.246;14.320;2023-06-26T03:02:38;11.18;;;5.60;;
77350;SDS011;66420;50.246;14.320;2023-06-26T03:05:23;11.32;;;6.40;;
77350;SDS011;66420;50.246;14.320;2023-06-26T03:08:08;7.88;;;5.35;;
77350;SDS011;66420;50.246;14.320;2023-06-26T03:10:52;8.40;;;5.25;;
77350;SDS011;66420;50.246;14.320;2023-06-26T03:13:37;8.18;;;5.22;;
77350;SDS011;66420;50.246;14.320;2023-06-26T03:16:22;8.60;;;5.38;;
77350;SDS011;66420;50.246;14.320;2023-06-26T03:19:07;9.07;;;6.05;;
77350;SDS011;66420;50.246;14.320;2023-06-26T03:21:51;8.10;;;5.82;;
77350;SDS011;66420;50.246;14.320;2023-06-26T03:24:36;8.70;;;6.20;;
77350;SDS011;66420;50.246;14.320;2023-06-26T03:27:20;9.23;;;5.25;;
77350;SDS011;66420;50.246;14.320;2023-06-26T03:30:05;8.82;;;6.32;;
77350;SDS011;66420;50.246;14.320;2023-06-26T03:32:50;8.50;;;6.22;;
77350;SDS011;66420;50.246;14.320;2023-06-26T03:35:35;8.15;;;5.85;;
77350;SDS011;66420;50.246;14.320;2023-06-26T03:38:21;10.60;;;5.70;;
77350;SDS011;66420;50.246;14.320;2023-06-26T03:41:06;11.50;;;6.82;;
77350;SDS011;66420;50.246;14.320;2023-06-26T03:43:51;10.18;;;5.70;;
77350;SDS011;66420;50.246;14.320;2023-06-26T03:46:35;9.93;;;5.53;;
77350;SDS011;66420;50.246;14.320;2023-06-26T03:49:20;8.70;;;5.82;;
77350;SDS011;66420;50.246;14.320;2023-06-26T03:52:05;10.65;;;5.97;;
77350;SDS011;66420;50.246;14.320;2023-06-26T03:54:50;8.63;;;6.00;;
77350;SDS011;66420;50.246;14.320;2023-06-26T03:57:35;10.13;;;6.38;;
77350;SDS011;66420;50.246;14.320;2023-06-26T04:00:20;10.90;;;6.63;;
77350;SDS011;66420;50.246;14.320;2023-06-26T04:03:05;12.88;;;6.00;;
77350;SDS011;66420;50.246;14.320;2023-06-26T04:05:49;8.25;;;5.60;;
77350;SDS011;66420;50.246;14.320;2023-06-26T04:08:34;9.85;;;5.75;;
77350;SDS011;66420;50.246;14.320;2023-06-26T04:11:19;10.15;;;6.38;;
77350;SDS011;66420;50.246;14.320;2023-06-26T04:14:04;8.13;;;5.38;;
77350;SDS011;66420;50.246;14.320;2023-06-26T04:16:48;9.48;;;5.03;;
77350;SDS011;66420;50.246;14.320;2023-06-26T04:19:33;7.95;;;5.10;;
77350;SDS011;66420;50.246;14.320;2023-06-26T04:22:20;9.27;;;5.65;;
77350;SDS011;66420;50.246;14.320;2023-06-26T04:25:05;9.15;;;4.78;;
77350;SDS011;66420;50.246;14.320;2023-06-26T04:27:50;7.97;;;5.00;;
77350;SDS011;66420;50.246;14.320;2023-06-26T04:30:35;9.57;;;5.07;;
77350;SDS011;66420;50.246;14.320;2023-06-26T04:33:20;8.65;;;4.72;;
77350;SDS011;66420;50.246;14.320;2023-06-26T04:36:05;8.27;;;5.20;;
77350;SDS011;66420;50.246;14.320;2023-06-26T04:38:50;11.38;;;5.35;;
77350;SDS011;66420;50.246;14.320;2023-06-26T04:41:35;7.18;;;4.85;;
77350;SDS011;66420;50.246;14.320;2023-06-26T04:44:20;7.00;;;5.28;;
77350;SDS011;66420;50.246;14.320;2023-06-26T04:47:05;9.85;;;4.53;;
77350;SDS011;66420;50.246;14.320;2023-06-26T04:49:50;12.32;;;5.78;;
77350;SDS011;66420;50.246;14.320;2023-06-26T04:52:35;8.05;;;4.93;;
77350;SDS011;66420;50.246;14.320;2023-06-26T04:55:19;14.35;;;6.57;;
77350;SDS011;66420;50.246;14.320;2023-06-26T04:58:05;13.57;;;7.43;;
77350;SDS011;66420;50.246;14.320;2023-06-26T05:00:50;20.08;;;7.00;;
77350;SDS011;66420;50.246;14.320;2023-06-26T05:03:35;11.98;;;6.43;;
77350;SDS011;66420;50.246;14.320;2023-06-26T05:06:21;12.10;;;6.80;;
77350;SDS011;66420;50.246;14.320;2023-06-26T05:09:06;13.30;;;7.30;;
77350;SDS011;66420;50.246;14.320;2023-06-26T05:11:51;19.15;;;7.93;;
77350;SDS011;66420;50.246;14.320;2023-06-26T05:14:36;12.45;;;7.35;;
77350;SDS011;66420;50.246;14.320;2023-06-26T05:17:21;20.10;;;7.35;;
77350;SDS011;66420;50.246;14.320;2023-06-26T05:20:06;13.95;;;8.10;;
77350;SDS011;66420;50.246;14.320;2023-06-26T05:22:52;13.63;;;6.88;;
77350;SDS011;66420;50.246;14.320;2023-06-26T05:25:37;14.68;;;8.43;;
77350;SDS011;66420;50.246;14.320;2023-06-26T05:28:23;12.55;;;8.00;;
77350;SDS011;66420;50.246;14.320;2023-06-26T05:31:09;11.52;;;6.32;;
77350;SDS011;66420;50.246;14.320;2023-06-26T05:33:54;13.45;;;7.90;;
77350;SDS011;66420;50.246;14.320;2023-06-26T05:36:42;13.85;;;8.52;;
77350;SDS011;66420;50.246;14.320;2023-06-26T05:39:30;13.63;;;8.13;;
77350;SDS011;66420;50.246;14.320;2023-06-26T05:42:16;15.30;;;7.60;;
77350;SDS011;66420;50.246;14.320;2023-06-26T05:45:01;13.25;;;7.63;;
77350;SDS011;66420;50.246;14.320;2023-06-26T05:47:45;13.23;;;7.65;;
77350;SDS011;66420;50.246;14.320;2023-06-26T05:50:30;13.63;;;7.63;;
77350;SDS011;66420;50.246;14.320;2023-06-26T05:53:15;15.23;;;7.97;;
77350;SDS011;66420;50.246;14.320;2023-06-26T05:56:00;14.18;;;7.47;;
77350;SDS011;66420;50.246;14.320;2023-06-26T05:58:46;11.05;;;7.32;;
77350;SDS011;66420;50.246;14.320;2023-06-26T06:01:31;12.13;;;7.53;;
77350;SDS011;66420;50.246;14.320;2023-06-26T06:04:17;16.05;;;7.35;;
77350;SDS011;66420;50.246;14.320;2023-06-26T06:07:02;15.65;;;8.00;;
77350;SDS011;66420;50.246;14.320;2023-06-26T06:09:47;14.65;;;7.85;;
77350;SDS011;66420;50.246;14.320;2023-06-26T06:12:31;14.10;;;7.90;;
77350;SDS011;66420;50.246;14.320;2023-06-26T06:15:16;17.10;;;8.25;;
77350;SDS011;66420;50.246;14.320;2023-06-26T06:18:00;17.52;;;8.48;;
77350;SDS011;66420;50.246;14.320;2023-06-26T06:20:45;20.90;;;8.00;;
77350;SDS011;66420;50.246;14.320;2023-06-26T06:23:30;12.98;;;7.53;;
77350;SDS011;66420;50.246;14.320;2023-06-26T06:26:15;14.15;;;7.57;;
77350;SDS011;66420;50.246;14.320;2023-06-26T06:28:59;12.15;;;7.65;;
77350;SDS011;66420;50.246;14.320;2023-06-26T06:31:45;15.48;;;7.82;;
77350;SDS011;66420;50.246;14.320;2023-06-26T06:34:29;14.18;;;7.60;;
77350;SDS011;66420;50.246;14.320;2023-06-26T06:37:14;17.88;;;7.40;;
77350;SDS011;66420;50.246;14.320;2023-06-26T06:39:58;11.30;;;6.80;;
77350;SDS011;66420;50.246;14.320;2023-06-26T06:42:43;11.88;;;6.43;;
77350;SDS011;66420;50.246;14.320;2023-06-26T06:45:28;11.68;;;7.03;;
77350;SDS011;66420;50.246;14.320;2023-06-26T06:48:13;9.93;;;7.10;;
77350;SDS011;66420;50.246;14.320;2023-06-26T06:50:58;10.43;;;6.65;;
77350;SDS011;66420;50.246;14.320;2023-06-26T06:53:43;11.45;;;6.18;;
77350;SDS011;66420;50.246;14.320;2023-06-26T06:56:28;13.35;;;6.65;;
77350;SDS011;66420;50.246;14.320;2023-06-26T06:59:13;11.88;;;6.80;;
77350;SDS011;66420;50.246;14.320;2023-06-26T07:01:58;16.40;;;6.72;;
77350;SDS011;66420;50.246;14.320;2023-06-26T07:04:42;11.98;;;6.65;;
77350;SDS011;66420;50.246;14.320;2023-06-26T07:07:28;13.13;;;7.18;;
77350;SDS011;66420;50.246;14.320;2023-06-26T07:10:15;11.80;;;6.25;;
77350;SDS011;66420;50.246;14.320;2023-06-26T07:12:59;12.90;;;6.13;;
77350;SDS011;66420;50.246;14.320;2023-06-26T07:15:45;10.77;;;6.10;;
77350;SDS011;66420;50.246;14.320;2023-06-26T07:18:31;9.25;;;6.15;;
77350;SDS011;66420;50.246;14.320;2023-06-26T07:21:16;11.00;;;6.28;;
77350;SDS011;66420;50.246;14.320;2023-06-26T07:24:01;12.27;;;6.35;;
77350;SDS011;66420;50.246;14.320;2023-06-26T07:26:46;13.23;;;6.18;;
77350;SDS011;66420;50.246;14.320;2023-06-26T07:29:31;9.32;;;6.35;;
77350;SDS011;66420;50.246;14.320;2023-06-26T07:32:16;9.30;;;5.63;;
77350;SDS011;66420;50.246;14.320;2023-06-26T07:35:01;10.52;;;5.63;;
77350;SDS011;66420;50.246;14.320;2023-06-26T07:37:46;8.90;;;5.60;;
77350;SDS011;66420;50.246;14.320;2023-06-26T07:40:31;7.80;;;5.35;;
77350;SDS011;66420;50.246;14.320;2023-06-26T07:43:16;9.88;;;5.55;;
77350;SDS011;66420;50.246;14.320;2023-06-26T07:46:00;8.40;;;5.40;;
77350;SDS011;66420;50.246;14.320;2023-06-26T07:48:45;10.35;;;5.90;;
77350;SDS011;66420;50.246;14.320;2023-06-26T07:51:29;7.88;;;5.30;;
77350;SDS011;66420;50.246;14.320;2023-06-26T07:54:14;10.07;;;6.07;;
77350;SDS011;66420;50.246;14.320;2023-06-26T07:57:02;10.63;;;5.80;;
77350;SDS011;66420;50.246;14.320;2023-06-26T07:59:53;7.93;;;5.40;;
77350;SDS011;66420;50.246;14.320;2023-06-26T08:02:38;10.35;;;4.97;;
77350;SDS011;66420;50.246;14.320;2023-06-26T08:05:23;8.40;;;5.28;;
77350;SDS011;66420;50.246;14.320;2023-06-26T08:08:07;6.50;;;4.55;;
77350;SDS011;66420;50.246;14.320;2023-06-26T08:10:52;9.85;;;5.30;;
77350;SDS011;66420;50.246;14.320;2023-06-26T08:13:36;9.27;;;5.20;;
77350;SDS011;66420;50.246;14.320;2023-06-26T08:16:21;9.07;;;4.80;;
77350;SDS011;66420;50.246;14.320;2023-06-26T08:19:06;7.85;;;4.40;;
77350;SDS011;66420;50.246;14.320;2023-06-26T08:21:51;7.00;;;4.85;;
77350;SDS011;66420;50.246;14.320;2023-06-26T08:24:35;6.40;;;4.20;;
77350;SDS011;66420;50.246;14.320;2023-06-26T08:27:21;7.45;;;4.85;;
77350;SDS011;66420;50.246;14.320;2023-06-26T08:30:05;7.97;;;4.45;;
77350;SDS011;66420;50.246;14.320;2023-06-26T09:22:42;8.40;;;3.80;;
77350;SDS011;66420;50.246;14.320;2023-06-26T09:29:12;5.80;;;3.97;;
77350;SDS011;66420;50.246;14.320;2023-06-26T09:31:59;6.35;;;3.85;;
77350;SDS011;66420;50.246;14.320;2023-06-26T09:34:44;6.57;;;3.90;;
77350;SDS011;66420;50.246;14.320;2023-06-26T09:37:29;5.95;;;3.97;;
77350;SDS011;66420;50.246;14.320;2023-06-26T09:40:14;7.20;;;4.15;;
77350;SDS011;66420;50.246;14.320;2023-06-26T09:43:03;7.05;;;4.35;;
77350;SDS011;66420;50.246;14.320;2023-06-26T09:45:51;8.20;;;4.10;;
77350;SDS011;66420;50.246;14.320;2023-06-26T09:48:38;4.72;;;3.63;;
77350;SDS011;66420;50.246;14.320;2023-06-26T09:51:23;9.05;;;4.07;;
77350;SDS011;66420;50.246;14.320;2023-06-26T09:54:08;6.10;;;4.10;;
77350;SDS011;66420;50.246;14.320;2023-06-26T09:56:55;9.38;;;4.22;;
77350;SDS011;66420;50.246;14.320;2023-06-26T09:59:41;6.65;;;3.85;;
77350;SDS011;66420;50.246;14.320;2023-06-26T10:02:26;7.05;;;4.03;;
77350;SDS011;66420;50.246;14.320;2023-06-26T10:05:11;5.60;;;4.22;;
77350;SDS011;66420;50.246;14.320;2023-06-26T10:07:56;5.57;;;4.00;;
77350;SDS011;66420;50.246;14.320;2023-06-26T10:10:42;6.00;;;3.75;;
77350;SDS011;66420;50.246;14.320;2023-06-26T10:13:31;9.40;;;3.95;;
77350;SDS011;66420;50.246;14.320;2023-06-26T10:16:23;5.93;;;3.92;;
77350;SDS011;66420;50.246;14.320;2023-06-26T10:19:11;4.78;;;3.72;;
77350;SDS011;66420;50.246;14.320;2023-06-26T10:33:30;5.40;;;4.47;;
77350;SDS011;66420;50.246;14.320;2023-06-26T10:36:15;6.25;;;4.53;;
77350;SDS011;66420;50.246;14.320;2023-06-26T10:39:06;5.22;;;4.38;;
77350;SDS011;66420;50.246;14.320;2023-06-26T10:41:51;11.93;;;4.40;;
77350;SDS011;66420;50.246;14.320;2023-06-26T10:44:42;5.88;;;4.15;;
77350;SDS011;66420;50.246;14.320;2023-06-26T10:47:31;6.75;;;4.95;;
77350;SDS011;66420;50.246;14.320;2023-06-26T10:53:11;5.18;;;4.47;;
77350;SDS011;66420;50.246;14.320;2023-06-26T10:56:05;5.60;;;4.32;;
77350;SDS011;66420;50.246;14.320;2023-06-26T10:58:50;7.13;;;4.25;;
77350;SDS011;66420;50.246;14.320;2023-06-26T11:01:39;5.38;;;4.18;;
77350;SDS011;66420;50.246;14.320;2023-06-26T11:07:29;6.13;;;4.55;;
77350;SDS011;66420;50.246;14.320;2023-06-26T11:10:14;10.25;;;4.40;;
77350;SDS011;66420;50.246;14.320;2023-06-26T11:13:00;5.97;;;3.97;;
77350;SDS011;66420;50.246;14.320;2023-06-26T11:15:47;8.07;;;4.50;;
77350;SDS011;66420;50.246;14.320;2023-06-26T11:18:33;4.97;;;3.70;;
77350;SDS011;66420;50.246;14.320;2023-06-26T11:21:17;6.43;;;4.22;;
77350;SDS011;66420;50.246;14.320;2023-06-26T11:24:07;7.72;;;4.13;;
77350;SDS011;66420;50.246;14.320;2023-06-26T11:26:52;5.60;;;4.18;;
77350;SDS011;66420;50.246;14.320;2023-06-26T11:29:37;5.78;;;4.60;;
77350;SDS011;66420;50.246;14.320;2023-06-26T11:32:21;5.80;;;4.28;;
77350;SDS011;66420;50.246;14.320;2023-06-26T11:35:06;5.78;;;4.38;;
77350;SDS011;66420;50.246;14.320;2023-06-26T11:37:54;5.10;;;4.28;;
77350;SDS011;66420;50.246;14.320;2023-06-26T11:40:45;5.40;;;4.40;;
77350;SDS011;66420;50.246;14.320;2023-06-26T11:43:29;6.57;;;4.43;;
77350;SDS011;66420;50.246;14.320;2023-06-26T11:46:16;5.47;;;4.15;;
77350;SDS011;66420;50.246;14.320;2023-06-26T11:49:05;6.90;;;4.25;;
77350;SDS011;66420;50.246;14.320;2023-06-26T11:51:51;7.50;;;4.47;;
77350;SDS011;66420;50.246;14.320;2023-06-26T11:54:36;5.28;;;4.28;;
77350;SDS011;66420;50.246;14.320;2023-06-26T11:57:21;5.43;;;4.07;;
77350;SDS011;66420;50.246;14.320;2023-06-26T12:00:10;5.53;;;3.92;;
77350;SDS011;66420;50.246;14.320;2023-06-26T12:02:58;7.03;;;4.57;;
77350;SDS011;66420;50.246;14.320;2023-06-26T12:05:43;7.10;;;4.32;;
77350;SDS011;66420;50.246;14.320;2023-06-26T12:08:29;5.55;;;4.05;;
77350;SDS011;66420;50.246;14.320;2023-06-26T12:11:14;8.20;;;4.60;;
77350;SDS011;66420;50.246;14.320;2023-06-26T12:13:59;6.82;;;4.38;;
77350;SDS011;66420;50.246;14.320;2023-06-26T12:16:44;6.95;;;4.50;;
77350;SDS011;66420;50.246;14.320;2023-06-26T12:19:28;7.32;;;4.82;;
77350;SDS011;66420;50.246;14.320;2023-06-26T12:22:13;4.97;;;4.15;;
77350;SDS011;66420;50.246;14.320;2023-06-26T12:24:58;6.18;;;4.45;;
77350;SDS011;66420;50.246;14.320;2023-06-26T12:27:44;5.63;;;4.35;;
77350;SDS011;66420;50.246;14.320;2023-06-26T12:30:30;6.68;;;4.68;;
77350;SDS011;66420;50.246;14.320;2023-06-26T12:33:15;5.15;;;4.10;;
77350;SDS011;66420;50.246;14.320;2023-06-26T12:36:00;8.93;;;4.78;;
77350;SDS011;66420;50.246;14.320;2023-06-26T12:38:45;6.35;;;4.18;;
77350;SDS011;66420;50.246;14.320;2023-06-26T12:41:30;7.88;;;4.63;;
77350;SDS011;66420;50.246;14.320;2023-06-26T12:44:16;6.85;;;4.55;;
77350;SDS011;66420;50.246;14.320;2023-06-26T12:47:02;6.95;;;4.20;;
77350;SDS011;66420;50.246;14.320;2023-06-26T12:49:50;7.68;;;4.60;;
77350;SDS011;66420;50.246;14.320;2023-06-26T12:52:35;6.85;;;4.63;;
77350;SDS011;66420;50.246;14.320;2023-06-26T12:55:20;6.22;;;4.47;;
77350;SDS011;66420;50.246;14.320;2023-06-26T12:58:05;5.75;;;4.60;;
77350;SDS011;66420;50.246;14.320;2023-06-26T13:00:51;5.43;;;4.03;;
77350;SDS011;66420;50.246;14.320;2023-06-26T13:03:38;8.00;;;4.88;;
77350;SDS011;66420;50.246;14.320;2023-06-26T13:06:23;6.47;;;4.50;;
77350;SDS011;66420;50.246;14.320;2023-06-26T13:09:07;5.05;;;4.30;;
77350;SDS011;66420;50.246;14.320;2023-06-26T13:11:52;6.40;;;4.63;;
77350;SDS011;66420;50.246;14.320;2023-06-26T13:14:38;5.28;;;4.40;;
77350;SDS011;66420;50.246;14.320;2023-06-26T13:17:22;6.03;;;5.03;;
77350;SDS011;66420;50.246;14.320;2023-06-26T13:20:07;9.40;;;4.95;;
77350;SDS011;66420;50.246;14.320;2023-06-26T13:22:52;7.53;;;4.43;;
77350;SDS011;66420;50.246;14.320;2023-06-26T13:25:38;5.47;;;4.53;;
77350;SDS011;66420;50.246;14.320;2023-06-26T13:28:23;5.97;;;4.50;;
77350;SDS011;66420;50.246;14.320;2023-06-26T13:31:07;5.88;;;4.75;;
77350;SDS011;66420;50.246;14.320;2023-06-26T13:33:52;6.85;;;4.88;;
77350;SDS011;66420;50.246;14.320;2023-06-26T13:36:37;5.93;;;4.75;;
77350;SDS011;66420;50.246;14.320;2023-06-26T13:39:22;6.78;;;5.05;;
77350;SDS011;66420;50.246;14.320;2023-06-26T13:42:07;7.93;;;4.82;;
77350;SDS011;66420;50.246;14.320;2023-06-26T13:44:52;8.25;;;4.70;;
77350;SDS011;66420;50.246;14.320;2023-06-26T13:47:36;6.03;;;4.85;;
77350;SDS011;66420;50.246;14.320;2023-06-26T13:50:22;5.90;;;4.80;;
77350;SDS011;66420;50.246;14.320;2023-06-26T13:53:06;6.10;;;4.80;;
77350;SDS011;66420;50.246;14.320;2023-06-26T13:55:51;7.60;;;4.78;;
77350;SDS011;66420;50.246;14.320;2023-06-26T13:58:35;5.85;;;4.70;;
77350;SDS011;66420;50.246;14.320;2023-06-26T14:01:20;6.82;;;5.22;;
77350;SDS011;66420;50.246;14.320;2023-06-26T14:04:05;7.82;;;4.90;;
77350;SDS011;66420;50.246;14.320;2023-06-26T14:06:50;7.72;;;4.90;;
77350;SDS011;66420;50.246;14.320;2023-06-26T14:09:35;7.95;;;4.75;;
77350;SDS011;66420;50.246;14.320;2023-06-26T14:12:20;6.03;;;4.55;;
77350;SDS011;66420;50.246;14.320;2023-06-26T14:15:05;6.43;;;4.72;;
77350;SDS011;66420;50.246;14.320;2023-06-26T14:17:50;7.25;;;4.35;;
77350;SDS011;66420;50.246;14.320;2023-06-26T14:20:36;7.45;;;4.60;;
77350;SDS011;66420;50.246;14.320;2023-06-26T14:23:20;7.82;;;5.00;;
77350;SDS011;66420;50.246;14.320;2023-06-26T14:26:05;9.15;;;4.78;;
77350;SDS011;66420;50.246;14.320;2023-06-26T14:28:49;5.55;;;4.45;;
77350;SDS011;66420;50.246;14.320;2023-06-26T14:31:34;7.25;;;4.50;;
77350;SDS011;66420;50.246;14.320;2023-06-26T14:34:18;9.45;;;4.57;;
77350;SDS011;66420;50.246;14.320;2023-06-26T14:37:03;6.25;;;4.65;;
77350;SDS011;66420;50.246;14.320;2023-06-26T14:39:48;6.68;;;4.97;;
77350;SDS011;66420;50.246;14.320;2023-06-26T14:42:32;6.53;;;4.38;;
77350;SDS011;66420;50.246;14.320;2023-06-26T14:45:18;5.38;;;4.32;;
77350;SDS011;66420;50.246;14.320;2023-06-26T14:48:02;5.78;;;4.75;;
77350;SDS011;66420;50.246;14.320;2023-06-26T14:50:47;7.05;;;4.43;;
77350;SDS011;66420;50.246;14.320;2023-06-26T14:53:31;6.65;;;4.55;;
77350;SDS011;66420;50.246;14.320;2023-06-26T14:56:16;5.57;;;4.40;;
77350;SDS011;66420;50.246;14.320;2023-06-26T14:59:01;6.13;;;4.63;;
77350;SDS011;66420;50.246;14.320;2023-06-26T15:01:46;7.70;;;5.57;;
77350;SDS011;66420;50.246;14.320;2023-06-26T15:04:31;7.38;;;4.10;;
77350;SDS011;66420;50.246;14.320;2023-06-26T15:07:16;6.47;;;4.80;;
77350;SDS011;66420;50.246;14.320;2023-06-26T15:10:01;9.68;;;4.13;;
77350;SDS011;66420;50.246;14.320;2023-06-26T15:12:45;7.10;;;4.47;;
77350;SDS011;66420;50.246;14.320;2023-06-26T15:15:30;5.63;;;3.90;;
77350;SDS011;66420;50.246;14.320;2023-06-26T15:18:15;6.35;;;4.97;;
77350;SDS011;66420;50.246;14.320;2023-06-26T15:20:59;7.97;;;4.47;;
77350;SDS011;66420;50.246;14.320;2023-06-26T15:23:47;5.72;;;4.38;;
77350;SDS011;66420;50.246;14.320;2023-06-26T15:26:31;7.68;;;4.47;;
77350;SDS011;66420;50.246;14.320;2023-06-26T15:29:16;6.30;;;4.65;;
77350;SDS011;66420;50.246;14.320;2023-06-26T15:32:02;5.38;;;3.97;;
77350;SDS011;66420;50.246;14.320;2023-06-26T15:34:47;6.07;;;4.00;;
77350;SDS011;66420;50.246;14.320;2023-06-26T15:37:32;6.28;;;4.15;;
77350;SDS011;66420;50.246;14.320;2023-06-26T15:40:17;5.63;;;3.88;;
77350;SDS011;66420;50.246;14.320;2023-06-26T15:43:02;5.15;;;3.90;;
77350;SDS011;66420;50.246;14.320;2023-06-26T15:45:47;5.75;;;4.03;;
77350;SDS011;66420;50.246;14.320;2023-06-26T15:48:33;8.77;;;4.18;;
77350;SDS011;66420;50.246;14.320;2023-06-26T15:51:18;5.57;;;4.05;;
77350;SDS011;66420;50.246;14.320;2023-06-26T15:54:03;7.57;;;4.35;;
77350;SDS011;66420;50.246;14.320;2023-06-26T15:56:48;5.95;;;4.18;;
77350;SDS011;66420;50.246;14.320;2023-06-26T15:59:33;5.95;;;4.65;;
77350;SDS011;66420;50.246;14.320;2023-06-26T16:02:18;5.30;;;4.05;;
77350;SDS011;66420;50.246;14.320;2023-06-26T16:05:02;6.22;;;3.88;;
77350;SDS011;66420;50.246;14.320;2023-06-26T16:07:48;5.30;;;3.95;;
77350;SDS011;66420;50.246;14.320;2023-06-26T16:10:33;6.53;;;4.07;;
77350;SDS011;66420;50.246;14.320;2023-06-26T16:13:18;5.65;;;4.00;;
77350;SDS011;66420;50.246;14.320;2023-06-26T16:16:05;8.55;;;3.90;;
77350;SDS011;66420;50.246;14.320;2023-06-26T16:18:52;6.38;;;4.40;;
77350;SDS011;66420;50.246;14.320;2023-06-26T16:21:36;5.97;;;3.90;;
77350;SDS011;66420;50.246;14.320;2023-06-26T16:24:21;5.88;;;4.25;;
77350;SDS011;66420;50.246;14.320;2023-06-26T16:27:06;5.50;;;4.22;;
77350;SDS011;66420;50.246;14.320;2023-06-26T16:29:50;5.88;;;4.20;;
77350;SDS011;66420;50.246;14.320;2023-06-26T16:32:35;6.97;;;4.22;;
77350;SDS011;66420;50.246;14.320;2023-06-26T16:35:20;7.43;;;4.00;;
77350;SDS011;66420;50.246;14.320;2023-06-26T16:38:06;6.35;;;4.50;;
77350;SDS011;66420;50.246;14.320;2023-06-26T16:40:53;5.55;;;4.05;;
77350;SDS011;66420;50.246;14.320;2023-06-26T16:43:38;5.13;;;3.83;;
77350;SDS011;66420;50.246;14.320;2023-06-26T16:46:23;5.20;;;3.80;;
77350;SDS011;66420;50.246;14.320;2023-06-26T16:49:08;5.50;;;3.60;;
77350;SDS011;66420;50.246;14.320;2023-06-26T16:51:52;8.80;;;3.70;;
77350;SDS011;66420;50.246;14.320;2023-06-26T16:57:24;5.30;;;3.80;;
77350;SDS011;66420;50.246;14.320;2023-06-26T17:00:09;5.43;;;3.97;;
77350;SDS011;66420;50.246;14.320;2023-06-26T17:02:55;5.60;;;3.88;;
77350;SDS011;66420;50.246;14.320;2023-06-26T17:05:40;6.45;;;3.75;;
77350;SDS011;66420;50.246;14.320;2023-06-26T17:08:24;6.15;;;3.70;;
77350;SDS011;66420;50.246;14.320;2023-06-26T17:11:09;6.30;;;4.30;;
77350;SDS011;66420;50.246;14.320;2023-06-26T17:13:53;5.15;;;3.85;;
77350;SDS011;66420;50.246;14.320;2023-06-26T17:16:38;5.70;;;4.05;;
77350;SDS011;66420;50.246;14.320;2023-06-26T17:19:22;5.43;;;3.88;;
77350;SDS011;66420;50.246;14.320;2023-06-26T17:22:07;7.03;;;3.80;;
77350;SDS011;66420;50.246;14.320;2023-06-26T17:24:51;8.27;;;5.00;;
77350;SDS011;66420;50.246;14.320;2023-06-26T17:27:37;29.10;;;11.07;;
77350;SDS011;66420;50.246;14.320;2023-06-26T17:30:22;10.07;;;5.28;;
77350;SDS011;66420;50.246;14.320;2023-06-26T17:33:07;6.53;;;4.20;;